Main page
METAR-TAF:

METAR-TAF

Airports :

London City Airport

London, England

latitude: 51-30N, longitude: 000-03E, elevation: 5 m

Current weather observation

The report was made 20 minutes ago, at 22:20 UTC
Wind 5 kt from the East
Temperature 7°C
Humidity 100%
Pressure 1009 hPa
Visibility: 2900 m
Scattered clouds at a height of 600 ft
rain

METAR: EGLC 272220Z AUTO 09005KT 2900 RA SCT006 07/07 Q1009 REDZ

Time: 22:40 (22:40 UTC)

Forecast

The report was made 2 hours and 54 minutes ago, at 19:46 UTC
Forecast valid from 27 at 19 UTC to 27 at 22 UTC
Wind 3 kt from the Southwest
Visibility: 7000 m
Scattered clouds at a height of 800 ft
Temporary
from 27 at 19 UTC to 27 at 22 UTC
Visibility: 0600 m
Broken clouds at a height of 100 ft
rain, drizzle, fog

TAF: EGLC 271946Z 2719/2722 23003KT 7000 SCT008 TEMPO 2719/2722 0600 RADZ FG BKN001

Weather observations and forecasts of more than 4000 airports (METAR and TAF reports).

The available stations are represented by yellow and red dots on the map.

Hover mouse over dot to see the name of the station.

Then click to see weather observations and forecasts.

To change the map : click on the green buttons with a black cross to zoom in, on the green button with a dash to zoom out, or on the green arrows for adjacent maps.


METAR-TAF: